Terminal Aerodrome Forecast
Issued by NWS

Home | Current Version | Previous Version | Text Only | Print | Product List | Glossary On
Versions: 1 2 3 4 5 6 7 8 9 10 11 12 13 14 15 16 17 18 19 20 21 22 23 24 25 26
000
FTUS43 KIND 221800 AAA
TAFHUF
TAF AMD
KHUF 221857Z 2219/2318 23008KT P6SM VCSH SCT020 BKN100
      TEMPO 2219/2221 BKN019
     FM230800 20004KT 5SM BR BKN150
     FM231300 20004KT P6SM SCT020 BKN100=

USA.gov is the U.S. government's official web portal to all federal, state and local government web resources and services.